Time;durP1;ratioP1;P1;durP2;ratioP2;P2;SDS_P1;SDS_P2;PMS_P1;PMS_P2;Temp;Humidity;BMP_temperature;BMP_pressure;BME280_temperature;BME280_humidity;BME280_pressure;Samples;Min_cycle;Max_cycle;Signal;HPM_P1;HPM_P2
2024/03/10 00:00:26;;;;;;;4.53;3.77;;;;;;;;;;6308478;28;20039;-77
2024/03/10 00:03:26;;;;;;;4.90;3.70;;;;;;;;;;6326037;28;20472;-76
2024/03/10 00:06:26;;;;;;;5.50;4.10;;;;;;;;;;6305306;28;20067;-77
2024/03/10 00:09:27;;;;;;;5.53;4.10;;;;;;;;;;6325075;28;20031;-76
2024/03/10 00:12:28;;;;;;;5.57;3.83;;;;;;;;;;6322670;28;20012;-76
2024/03/10 00:15:30;;;;;;;6.10;4.03;;;;;;;;;;6325200;28;20063;-77
2024/03/10 00:18:32;;;;;;;5.60;4.55;;;;;;;;;;6325881;28;20115;-76
2024/03/10 00:21:33;;;;;;;5.35;4.07;;;;;;;;;;6324227;28;20036;-76
2024/03/10 00:24:33;;;;;;;4.93;4.03;;;;;;;;;;6325449;28;20034;-77
2024/03/10 00:27:36;;;;;;;4.43;4.00;;;;;;;;;;6324934;28;20433;-77
2024/03/10 00:30:36;;;;;;;7.05;4.20;;;;;;;;;;6321311;28;20472;-76
2024/03/10 00:33:37;;;;;;;6.30;4.07;;;;;;;;;;6324143;28;20024;-76
2024/03/10 00:36:37;;;;;;;5.07;3.83;;;;;;;;;;6322692;28;20028;-76
2024/03/10 00:39:37;;;;;;;5.37;4.13;;;;;;;;;;6317797;28;20119;-76
2024/03/10 00:42:38;;;;;;;4.47;3.93;;;;;;;;;;6301265;28;20024;-78
2024/03/10 00:45:39;;;;;;;5.10;3.70;;;;;;;;;;6317088;28;20388;-76
2024/03/10 00:48:39;;;;;;;4.78;4.25;;;;;;;;;;6317613;28;20480;-77
2024/03/10 00:51:41;;;;;;;5.67;3.80;;;;;;;;;;6312748;28;20088;-76
2024/03/10 00:54:41;;;;;;;4.97;4.10;;;;;;;;;;6321536;28;20388;-76
2024/03/10 00:57:42;;;;;;;4.43;3.67;;;;;;;;;;6322360;28;20024;-76
2024/03/10 01:00:42;;;;;;;4.67;3.90;;;;;;;;;;6297830;28;20024;-76
2024/03/10 01:03:42;;;;;;;4.73;3.77;;;;;;;;;;6305360;28;20038;-76
2024/03/10 01:06:43;;;;;;;4.67;3.57;;;;;;;;;;6320018;28;20032;-78
2024/03/10 01:09:44;;;;;;;4.47;3.63;;;;;;;;;;6315142;28;20525;-77
2024/03/10 01:12:44;;;;;;;4.75;3.22;;;;;;;;;;6323731;28;20027;-76
2024/03/10 01:15:44;;;;;;;5.13;3.93;;;;;;;;;;6312296;28;20032;-77
2024/03/10 01:18:45;;;;;;;6.20;4.33;;;;;;;;;;6312328;28;20024;-78
2024/03/10 01:21:46;;;;;;;4.90;4.13;;;;;;;;;;6301787;28;20484;-77
2024/03/10 01:24:46;;;;;;;4.83;4.17;;;;;;;;;;6315121;28;20114;-77
2024/03/10 01:27:46;;;;;;;5.23;3.93;;;;;;;;;;6317084;28;20026;-77
2024/03/10 01:30:47;;;;;;;5.43;4.30;;;;;;;;;;6314177;28;20465;-77
2024/03/10 01:33:48;;;;;;;7.30;4.33;;;;;;;;;;6309833;28;20456;-77
2024/03/10 01:36:48;;;;;;;5.20;4.35;;;;;;;;;;6313548;28;20020;-77
2024/03/10 01:39:48;;;;;;;5.50;4.53;;;;;;;;;;6319436;28;20443;-77
2024/03/10 01:42:53;;;;;;;4.53;3.90;;;;;;;;;;6321187;28;20292;-77
2024/03/10 01:46:00;;;;;;;5.50;4.40;;;;;;;;;;6316496;28;20143;-77
2024/03/10 01:49:03;;;;;;;5.72;4.47;;;;;;;;;;6302765;28;20035;-77
2024/03/10 01:52:03;;;;;;;5.57;4.45;;;;;;;;;;6321936;28;20059;-77
2024/03/10 01:55:06;;;;;;;6.43;4.47;;;;;;;;;;6314097;28;20021;-77
2024/03/10 01:58:06;;;;;;;7.15;4.72;;;;;;;;;;6311928;28;20028;-77
2024/03/10 02:01:09;;;;;;;5.53;4.27;;;;;;;;;;6321162;28;20392;-77
2024/03/10 02:04:09;;;;;;;6.88;4.55;;;;;;;;;;6304435;28;20205;-77
2024/03/10 02:07:10;;;;;;;6.60;4.43;;;;;;;;;;6312918;28;20040;-77
2024/03/10 02:10:10;;;;;;;6.53;4.83;;;;;;;;;;6319555;28;20023;-77
2024/03/10 02:13:11;;;;;;;5.37;4.10;;;;;;;;;;6311641;28;20458;-77
2024/03/10 02:16:11;;;;;;;5.37;4.13;;;;;;;;;;6320410;28;20028;-77
2024/03/10 02:19:16;;;;;;;5.70;4.67;;;;;;;;;;6309516;28;20017;-77
2024/03/10 02:22:16;;;;;;;6.78;4.43;;;;;;;;;;6319799;28;20388;-77
2024/03/10 02:25:22;;;;;;;6.23;4.10;;;;;;;;;;6319921;28;20056;-77
2024/03/10 02:29:14;;;;;;;5.38;4.32;;;;;;;;;;6317060;28;20387;-78
2024/03/10 02:48:21;;;;;;;5.38;4.05;;;;;;;;;;6315007;28;20389;-77
2024/03/10 02:51:23;;;;;;;5.20;4.10;;;;;;;;;;6316408;28;20032;-77
2024/03/10 02:54:23;;;;;;;5.50;4.18;;;;;;;;;;6307094;28;20028;-77
2024/03/10 02:57:23;;;;;;;5.50;4.37;;;;;;;;;;6315541;28;20024;-76
2024/03/10 03:00:23;;;;;;;4.30;3.73;;;;;;;;;;6320174;28;20469;-76
2024/03/10 03:03:24;;;;;;;4.83;3.47;;;;;;;;;;6317972;28;20469;-77
2024/03/10 03:06:24;;;;;;;4.60;3.50;;;;;;;;;;6318046;28;20058;-77
2024/03/10 03:09:24;;;;;;;4.90;3.47;;;;;;;;;;6318703;28;20035;-77
2024/03/10 03:12:25;;;;;;;4.57;3.73;;;;;;;;;;6318173;28;20021;-77
2024/03/10 03:15:26;;;;;;;5.72;3.72;;;;;;;;;;6322260;28;20027;-77
2024/03/10 03:18:26;;;;;;;3.80;3.40;;;;;;;;;;6314022;28;20067;-77
2024/03/10 03:21:26;;;;;;;5.40;4.20;;;;;;;;;;6318085;28;20040;-77
2024/03/10 03:24:27;;;;;;;4.30;3.80;;;;;;;;;;6306638;28;20028;-77
2024/03/10 03:27:27;;;;;;;4.20;3.77;;;;;;;;;;6327505;28;20031;-77
2024/03/10 03:30:27;;;;;;;6.03;4.23;;;;;;;;;;6326947;28;20565;-77
2024/03/10 03:33:28;;;;;;;5.90;4.53;;;;;;;;;;6322646;28;20035;-76
2024/03/10 03:36:28;;;;;;;4.70;4.10;;;;;;;;;;6320935;28;20085;-76
2024/03/10 03:39:28;;;;;;;5.57;4.47;;;;;;;;;;6320486;28;20027;-76
2024/03/10 03:42:28;;;;;;;4.80;3.97;;;;;;;;;;6316334;28;20056;-77
2024/03/10 03:45:29;;;;;;;3.80;3.40;;;;;;;;;;6315445;28;20662;-77
2024/03/10 03:48:29;;;;;;;5.37;4.10;;;;;;;;;;6318726;28;20039;-77
2024/03/10 03:51:29;;;;;;;5.10;4.27;;;;;;;;;;6318274;28;20020;-77
2024/03/10 03:54:31;;;;;;;4.27;3.60;;;;;;;;;;6317230;28;20546;-77
2024/03/10 03:57:31;;;;;;;5.75;4.40;;;;;;;;;;6323342;28;20464;-77
2024/03/10 04:00:32;;;;;;;5.20;4.03;;;;;;;;;;6322737;28;20032;-77
2024/03/10 04:03:32;;;;;;;6.37;4.53;;;;;;;;;;6324558;28;20031;-77
2024/03/10 04:06:32;;;;;;;5.30;4.63;;;;;;;;;;6322541;28;20039;-77
2024/03/10 04:09:34;;;;;;;5.70;4.00;;;;;;;;;;6301583;28;20035;-77
2024/03/10 04:12:35;;;;;;;5.77;4.40;;;;;;;;;;6319827;28;20043;-77
2024/03/10 04:15:35;;;;;;;6.00;4.35;;;;;;;;;;6316923;28;20394;-77
2024/03/10 04:18:35;;;;;;;4.87;4.13;;;;;;;;;;6324122;28;20032;-77
2024/03/10 04:21:36;;;;;;;5.77;4.50;;;;;;;;;;6322200;28;20028;-77
2024/03/10 04:24:39;;;;;;;4.93;4.07;;;;;;;;;;6321260;28;20036;-76
2024/03/10 04:27:40;;;;;;;6.03;4.38;;;;;;;;;;6319460;28;20024;-77
2024/03/10 04:30:41;;;;;;;5.70;4.43;;;;;;;;;;6321281;28;20032;-77
2024/03/10 04:33:41;;;;;;;6.22;4.28;;;;;;;;;;6323894;28;20031;-77
2024/03/10 04:36:41;;;;;;;5.13;4.20;;;;;;;;;;6322511;28;20430;-77
2024/03/10 04:39:42;;;;;;;5.67;4.40;;;;;;;;;;6323128;28;20477;-77
2024/03/10 04:42:42;;;;;;;4.73;3.97;;;;;;;;;;6324038;28;20447;-77
2024/03/10 04:45:42;;;;;;;5.73;4.27;;;;;;;;;;6299757;28;20484;-76
2024/03/10 04:48:42;;;;;;;8.10;4.23;;;;;;;;;;6318563;28;20057;-77
2024/03/10 04:51:43;;;;;;;5.43;4.50;;;;;;;;;;6321050;28;20361;-77
2024/03/10 04:54:45;;;;;;;6.33;4.80;;;;;;;;;;6322219;28;20024;-76
2024/03/10 04:57:47;;;;;;;5.55;4.68;;;;;;;;;;6323957;28;20043;-76
2024/03/10 05:00:47;;;;;;;5.68;4.38;;;;;;;;;;6317603;28;20093;-74
2024/03/10 05:03:50;;;;;;;7.13;4.70;;;;;;;;;;6323321;28;20032;-77
2024/03/10 05:06:50;;;;;;;5.95;4.35;;;;;;;;;;6323397;28;20567;-77
2024/03/10 05:09:50;;;;;;;5.17;4.27;;;;;;;;;;6324927;28;20027;-77
2024/03/10 05:12:51;;;;;;;5.65;4.05;;;;;;;;;;6311271;28;20549;-77
2024/03/10 05:15:52;;;;;;;6.37;4.73;;;;;;;;;;6306023;28;20031;-76
2024/03/10 05:18:53;;;;;;;5.00;3.93;;;;;;;;;;6323880;28;20342;-76
2024/03/10 05:21:54;;;;;;;6.28;4.35;;;;;;;;;;6321890;28;20393;-76
2024/03/10 05:24:54;;;;;;;5.70;4.10;;;;;;;;;;6323386;28;20059;-76
2024/03/10 05:27:54;;;;;;;4.97;4.10;;;;;;;;;;6319752;28;20016;-75
2024/03/10 05:30:55;;;;;;;6.00;4.43;;;;;;;;;;6321990;28;20388;-76
2024/03/10 05:33:57;;;;;;;4.87;4.00;;;;;;;;;;6321714;28;20020;-76
2024/03/10 05:36:58;;;;;;;4.20;3.63;;;;;;;;;;6317474;28;20115;-76
2024/03/10 05:39:59;;;;;;;6.07;4.30;;;;;;;;;;6320064;28;20101;-76
2024/03/10 05:42:59;;;;;;;4.83;3.60;;;;;;;;;;6319742;28;20040;-76
2024/03/10 05:46:00;;;;;;;4.03;3.60;;;;;;;;;;6301539;28;20071;-76
2024/03/10 05:49:01;;;;;;;4.75;3.72;;;;;;;;;;6319992;28;20066;-77
2024/03/10 05:52:01;;;;;;;6.18;3.97;;;;;;;;;;6319183;28;20085;-76
2024/03/10 05:55:02;;;;;;;4.70;3.47;;;;;;;;;;6299425;28;20739;-76
2024/03/10 05:58:02;;;;;;;5.43;4.00;;;;;;;;;;6321268;28;20059;-76
2024/03/10 06:01:03;;;;;;;3.77;3.37;;;;;;;;;;6319166;28;20461;-75
2024/03/10 06:04:04;;;;;;;4.13;3.43;;;;;;;;;;6319747;28;20038;-78
2024/03/10 06:07:05;;;;;;;4.30;3.25;;;;;;;;;;6315672;28;20463;-78
2024/03/10 06:10:06;;;;;;;3.70;3.07;;;;;;;;;;6319117;28;20028;-79
2024/03/10 06:13:06;;;;;;;5.53;3.70;;;;;;;;;;6320904;28;20016;-78
2024/03/10 06:16:07;;;;;;;4.13;3.73;;;;;;;;;;6320959;28;20058;-78
2024/03/10 06:25:29;;;;;;;4.10;3.50;;;;;;;;;;6318553;28;20056;-78
2024/03/10 06:28:30;;;;;;;5.30;3.97;;;;;;;;;;6318587;28;20505;-79
2024/03/10 06:31:31;;;;;;;4.10;3.43;;;;;;;;;;6318426;28;20034;-76
2024/03/10 06:34:32;;;;;;;4.38;3.47;;;;;;;;;;6317483;28;20052;-77
2024/03/10 06:37:33;;;;;;;5.40;3.33;;;;;;;;;;6319929;28;20058;-78
2024/03/10 06:40:33;;;;;;;;;;;;;;;;;;6321334;28;20034;-78
2024/03/10 06:43:34;;;;;;;3.80;3.00;;;;;;;;;;6320820;28;19970;-78
2024/03/10 06:46:34;;;;;;;3.70;3.10;;;;;;;;;;6320674;28;20493;-77
2024/03/10 06:49:34;;;;;;;3.93;3.10;;;;;;;;;;6301469;28;20020;-78
2024/03/10 06:52:35;;;;;;;4.87;3.60;;;;;;;;;;6314718;28;20099;-77
2024/03/10 06:55:36;;;;;;;4.72;3.42;;;;;;;;;;6292552;28;20627;-76
2024/03/10 06:58:36;;;;;;;3.90;3.03;;;;;;;;;;6317866;28;20031;-79
2024/03/10 07:01:45;;;;;;;4.93;3.57;;;;;;;;;;6319428;28;20108;-76
2024/03/10 07:04:45;;;;;;;5.32;3.60;;;;;;;;;;6317154;28;20032;-76
2024/03/10 07:07:46;;;;;;;4.63;3.40;;;;;;;;;;6318374;28;20039;-77
2024/03/10 07:10:46;;;;;;;4.07;3.63;;;;;;;;;;6319435;28;20144;-76
2024/03/10 07:13:46;;;;;;;4.07;3.38;;;;;;;;;;6319624;28;20469;-77
2024/03/10 07:16:47;;;;;;;4.73;3.60;;;;;;;;;;6317348;28;20043;-76
2024/03/10 07:19:48;;;;;;;3.85;3.20;;;;;;;;;;6318102;28;20057;-77
2024/03/10 07:22:48;;;;;;;5.17;3.93;;;;;;;;;;6314872;28;20023;-77
2024/03/10 07:25:49;;;;;;;5.57;3.80;;;;;;;;;;6320086;28;20041;-78
2024/03/10 07:28:49;;;;;;;4.37;3.73;;;;;;;;;;6313314;28;20028;-79
2024/03/10 07:31:49;;;;;;;4.60;3.33;;;;;;;;;;6317006;28;20516;-77
2024/03/10 07:34:49;;;;;;;5.27;3.57;;;;;;;;;;6301643;28;20020;-78
2024/03/10 07:37:50;;;;;;;5.03;3.37;;;;;;;;;;6315542;28;20531;-77
2024/03/10 07:40:50;;;;;;;3.90;3.17;;;;;;;;;;6318440;28;20024;-77
2024/03/10 07:43:50;;;;;;;4.33;3.43;;;;;;;;;;6302355;28;20499;-77
2024/03/10 07:46:51;;;;;;;5.33;3.73;;;;;;;;;;6316367;28;20032;-79
2024/03/10 07:49:51;;;;;;;4.03;3.22;;;;;;;;;;6317942;28;20024;-78
2024/03/10 07:52:51;;;;;;;3.37;3.07;;;;;;;;;;6310609;28;20032;-78
2024/03/10 07:55:52;;;;;;;4.33;3.47;;;;;;;;;;6318039;28;20032;-78
2024/03/10 07:58:52;;;;;;;5.13;3.23;;;;;;;;;;6320108;28;20046;-77
2024/03/10 08:01:52;;;;;;;3.93;3.13;;;;;;;;;;6312391;28;20078;-77
2024/03/10 08:04:53;;;;;;;4.03;3.20;;;;;;;;;;6317593;28;20103;-77
2024/03/10 08:07:53;;;;;;;3.80;3.43;;;;;;;;;;6317472;28;21270;-77
2024/03/10 08:10:53;;;;;;;2.83;2.63;;;;;;;;;;6318207;28;20523;-77
2024/03/10 08:13:54;;;;;;;3.77;2.80;;;;;;;;;;6306470;28;20108;-76
2024/03/10 08:16:54;;;;;;;3.73;2.90;;;;;;;;;;6304444;28;20058;-76
2024/03/10 08:19:54;;;;;;;2.87;2.63;;;;;;;;;;6321978;28;20023;-77
2024/03/10 08:22:55;;;;;;;4.87;3.10;;;;;;;;;;6322020;28;20020;-78
2024/03/10 08:25:55;;;;;;;3.10;2.80;;;;;;;;;;6317970;28;20059;-79
2024/03/10 08:28:55;;;;;;;3.20;2.87;;;;;;;;;;6322274;28;20102;-77
2024/03/10 08:31:56;;;;;;;3.20;2.67;;;;;;;;;;6322487;28;20266;-78
2024/03/10 08:34:56;;;;;;;3.27;2.53;;;;;;;;;;6320499;28;20039;-77
2024/03/10 08:37:57;;;;;;;3.13;2.40;;;;;;;;;;6316902;28;20142;-77
2024/03/10 08:40:57;;;;;;;2.90;2.63;;;;;;;;;;6320530;28;20093;-77
2024/03/10 08:44:00;;;;;;;3.50;2.97;;;;;;;;;;6303400;28;20270;-77
2024/03/10 08:47:00;;;;;;;3.15;2.80;;;;;;;;;;6320621;28;20521;-76
2024/03/10 08:50:02;;;;;;;3.83;2.97;;;;;;;;;;6318950;28;20081;-76
2024/03/10 08:53:05;;;;;;;3.42;2.83;;;;;;;;;;6322929;28;20031;-75
2024/03/10 08:56:07;;;;;;;3.08;2.35;;;;;;;;;;6316832;28;20176;-76
2024/03/10 08:59:10;;;;;;;3.22;2.47;;;;;;;;;;6321845;28;20028;-76
2024/03/10 09:02:12;;;;;;;2.50;2.30;;;;;;;;;;6320080;28;20032;-76
2024/03/10 09:05:15;;;;;;;3.43;2.33;;;;;;;;;;6313912;28;20445;-76
2024/03/10 09:08:16;;;;;;;2.42;2.22;;;;;;;;;;6320713;28;20112;-75
2024/03/10 09:11:16;;;;;;;2.50;1.93;;;;;;;;;;6320131;28;20032;-77
2024/03/10 09:14:18;;;;;;;2.77;2.13;;;;;;;;;;6318469;28;20021;-77
2024/03/10 09:17:18;;;;;;;2.75;2.33;;;;;;;;;;6321270;28;20028;-76
2024/03/10 09:20:20;;;;;;;3.73;2.30;;;;;;;;;;6302326;28;20047;-77
2024/03/10 09:23:21;;;;;;;2.63;2.35;;;;;;;;;;6298741;28;20646;-77
2024/03/10 09:26:21;;;;;;;2.40;2.13;;;;;;;;;;6320343;28;20040;-76
2024/03/10 09:29:25;;;;;;;2.77;2.20;;;;;;;;;;6317903;28;20499;-76
2024/03/10 09:32:27;;;;;;;2.83;2.20;;;;;;;;;;6319304;28;20074;-77
2024/03/10 09:35:35;;;;;;;;;;;;;;;;;;6318583;28;20032;-77
2024/03/10 09:38:35;;;;;;;2.42;2.03;;;;;;;;;;6317432;28;19955;-78
2024/03/10 09:41:37;;;;;;;2.33;1.80;;;;;;;;;;6315080;28;20479;-77
2024/03/10 09:44:37;;;;;;;2.35;1.95;;;;;;;;;;6301233;28;20499;-77
2024/03/10 09:47:37;;;;;;;3.03;2.23;;;;;;;;;;6322317;28;20028;-77
2024/03/10 09:50:41;;;;;;;3.47;2.07;;;;;;;;;;6315054;28;20020;-78
2024/03/10 09:53:43;;;;;;;3.60;2.17;;;;;;;;;;6299114;28;20048;-77
2024/03/10 09:56:47;;;;;;;3.47;2.75;;;;;;;;;;6312867;28;20772;-78
2024/03/10 09:59:47;;;;;;;2.85;2.58;;;;;;;;;;6320684;28;20433;-77
2024/03/10 10:02:48;;;;;;;2.83;2.50;;;;;;;;;;6320745;28;22778;-78
2024/03/10 10:05:57;;;;;;;3.22;2.47;;;;;;;;;;6319378;28;20053;-77
2024/03/10 10:09:07;;;;;;;3.15;2.80;;;;;;;;;;6320096;28;20031;-77
2024/03/10 10:12:07;;;;;;;3.08;2.78;;;;;;;;;;6319262;28;20465;-78
2024/03/10 10:15:08;;;;;;;3.43;2.77;;;;;;;;;;6320321;28;20028;-78
2024/03/10 10:18:15;;;;;;;2.83;2.60;;;;;;;;;;6317862;28;20297;-78
2024/03/10 10:21:16;;;;;;;2.83;2.60;;;;;;;;;;6317989;28;20366;-79
2024/03/10 10:24:16;;;;;;;2.87;2.60;;;;;;;;;;6317824;28;20063;-78
2024/03/10 10:27:16;;;;;;;2.77;2.40;;;;;;;;;;6310755;28;20130;-79
2024/03/10 10:30:22;;;;;;;2.90;2.60;;;;;;;;;;6320177;28;20036;-78
2024/03/10 10:33:23;;;;;;;3.40;2.78;;;;;;;;;;6316811;28;20024;-78
2024/03/10 10:36:23;;;;;;;;;;;;;;;;;;6316869;28;20426;-78
2024/03/10 10:39:29;;;;;;;2.47;1.95;;;;;;;;;;6320676;28;19938;-78
2024/03/10 10:42:30;;;;;;;3.58;2.45;;;;;;;;;;6320297;28;20023;-77
2024/03/10 10:45:30;;;;;;;3.05;2.70;;;;;;;;;;6320672;28;20043;-77
2024/03/10 10:48:31;;;;;;;3.57;2.70;;;;;;;;;;6316869;28;20384;-76
2024/03/10 10:51:34;;;;;;;3.00;2.47;;;;;;;;;;6317660;28;20085;-77
2024/03/10 10:54:36;;;;;;;2.40;2.20;;;;;;;;;;6314770;28;20024;-78
2024/03/10 10:57:41;;;;;;;2.53;2.30;;;;;;;;;;6318589;28;20027;-78
2024/03/10 11:00:52;;;;;;;2.55;2.08;;;;;;;;;;6319210;28;20034;-77
2024/03/10 11:03:54;;;;;;;2.65;2.00;;;;;;;;;;6320573;28;20460;-77
2024/03/10 11:06:55;;;;;;;4.18;2.13;;;;;;;;;;6316960;28;20044;-76
2024/03/10 11:09:55;;;;;;;2.83;2.25;;;;;;;;;;6318042;28;20032;-77
2024/03/10 11:13:08;;;;;;;2.83;2.23;;;;;;;;;;6319558;28;20039;-78
2024/03/10 11:16:11;;;;;;;3.05;2.03;;;;;;;;;;6315987;28;20035;-81
2024/03/10 11:19:15;;;;;;;2.30;2.10;;;;;;;;;;6317256;28;20446;-78
2024/03/10 11:22:27;;;;;;;3.17;2.22;;;;;;;;;;6317926;28;20115;-77
2024/03/10 11:25:33;;;;;;;2.42;2.22;;;;;;;;;;6316637;28;20055;-81
2024/03/10 11:28:53;;;;;;;3.60;2.63;;;;;;;;;;6318465;28;20028;-78
2024/03/10 11:31:56;;;;;;;2.40;2.20;;;;;;;;;;6298662;28;20036;-77
2024/03/10 11:34:56;;;;;;;3.03;2.60;;;;;;;;;;6315437;28;20085;-79
2024/03/10 11:37:59;;;;;;;3.15;2.60;;;;;;;;;;6319028;28;20028;-77
2024/03/10 11:41:00;;;;;;;2.45;2.25;;;;;;;;;;6319326;28;20032;-78
2024/03/10 11:44:00;;;;;;;;;;;;;;;;;;6320222;28;20132;-79
2024/03/10 11:47:02;;;;;;;2.17;1.77;;;;;;;;;;6321439;28;19916;-78
2024/03/10 11:50:04;;;;;;;2.63;2.20;;;;;;;;;;6317684;28;20020;-77
2024/03/10 11:53:05;;;;;;;3.15;2.70;;;;;;;;;;6319834;28;20027;-78
2024/03/10 11:56:05;;;;;;;2.38;2.17;;;;;;;;;;6319560;28;20056;-74
2024/03/10 11:59:05;;;;;;;3.20;2.37;;;;;;;;;;6324561;28;20455;-75
2024/03/10 12:02:06;;;;;;;3.10;1.93;;;;;;;;;;6323118;28;20517;-76
2024/03/10 12:05:11;;;;;;;2.35;2.15;;;;;;;;;;6304449;28;20782;-76
2024/03/10 12:08:13;;;;;;;2.00;1.80;;;;;;;;;;6320171;28;21324;-75
2024/03/10 12:11:14;;;;;;;2.65;2.15;;;;;;;;;;6323279;28;20055;-76
2024/03/10 12:14:15;;;;;;;3.38;2.00;;;;;;;;;;6324158;28;20024;-77
2024/03/10 12:17:15;;;;;;;2.92;1.63;;;;;;;;;;6316579;28;20057;-83
2024/03/10 12:20:15;;;;;;;1.97;1.47;;;;;;;;;;6322525;28;20035;-77
2024/03/10 12:23:20;;;;;;;1.60;1.17;;;;;;;;;;6322058;28;20161;-79
2024/03/10 12:26:22;;;;;;;1.20;0.98;;;;;;;;;;6322711;28;20056;-79
2024/03/10 12:29:22;;;;;;;0.88;0.75;;;;;;;;;;6323996;28;20350;-78
2024/03/10 12:32:23;;;;;;;1.30;1.00;;;;;;;;;;6305833;28;20031;-78
2024/03/10 12:35:23;;;;;;;0.90;0.80;;;;;;;;;;6322518;28;20471;-78
2024/03/10 12:38:23;;;;;;;0.93;0.73;;;;;;;;;;6320483;28;20062;-76
2024/03/10 12:41:24;;;;;;;1.10;0.70;;;;;;;;;;6303105;28;20052;-76
2024/03/10 12:44:24;;;;;;;0.80;0.70;;;;;;;;;;6323200;28;20032;-77
2024/03/10 12:47:24;;;;;;;0.57;0.57;;;;;;;;;;6317240;28;20060;-74
2024/03/10 12:50:25;;;;;;;0.90;0.80;;;;;;;;;;6320861;28;20019;-73
2024/03/10 12:53:25;;;;;;;1.20;0.80;;;;;;;;;;6322136;28;20404;-74
2024/03/10 12:56:25;;;;;;;1.00;0.60;;;;;;;;;;6321911;28;20258;-74
2024/03/10 12:59:26;;;;;;;1.70;0.70;;;;;;;;;;6323044;28;20081;-73
2024/03/10 13:02:27;;;;;;;0.90;0.80;;;;;;;;;;6321953;28;20034;-73
2024/03/10 13:05:27;;;;;;;;;;;;;;;;;;6321486;28;20024;-76
2024/03/10 13:08:28;;;;;;;0.80;0.70;;;;;;;;;;6322798;28;19919;-74
2024/03/10 13:11:28;;;;;;;1.15;0.68;;;;;;;;;;6321217;28;20020;-74
2024/03/10 13:14:31;;;;;;;1.93;0.70;;;;;;;;;;6324895;28;20020;-74
2024/03/10 13:17:31;;;;;;;1.10;0.75;;;;;;;;;;6319777;28;20105;-74
2024/03/10 13:20:32;;;;;;;1.30;0.80;;;;;;;;;;6322018;28;20028;-75
2024/03/10 13:23:33;;;;;;;0.93;0.60;;;;;;;;;;6322248;28;20461;-74
2024/03/10 13:26:33;;;;;;;1.27;0.70;;;;;;;;;;6320407;28;20090;-73
2024/03/10 13:29:35;;;;;;;1.25;0.80;;;;;;;;;;6322680;28;20028;-73
2024/03/10 13:32:36;;;;;;;0.80;0.60;;;;;;;;;;6316235;28;20035;-74
2024/03/10 13:35:36;;;;;;;0.95;0.57;;;;;;;;;;6318211;28;20476;-75
2024/03/10 13:38:36;;;;;;;0.87;0.60;;;;;;;;;;6321678;28;20050;-74
2024/03/10 13:41:38;;;;;;;0.83;0.67;;;;;;;;;;6319227;28;20099;-74
2024/03/10 13:44:38;;;;;;;0.60;0.60;;;;;;;;;;6321219;28;20289;-74
2024/03/10 13:47:39;;;;;;;1.13;0.70;;;;;;;;;;6321538;28;20028;-74
2024/03/10 13:50:39;;;;;;;0.68;0.60;;;;;;;;;;6320148;28;20016;-74
2024/03/10 13:53:39;;;;;;;0.60;0.53;;;;;;;;;;6323531;28;20054;-74
2024/03/10 13:56:40;;;;;;;0.60;0.60;;;;;;;;;;6322132;28;20038;-75
2024/03/10 13:59:40;;;;;;;1.35;0.70;;;;;;;;;;6323180;28;20066;-74
2024/03/10 14:02:44;;;;;;;2.37;0.73;;;;;;;;;;6323673;28;20040;-73
2024/03/10 14:05:44;;;;;;;3.28;0.73;;;;;;;;;;6318910;28;20390;-74
2024/03/10 14:08:44;;;;;;;5.82;0.88;;;;;;;;;;6316412;28;20036;-74
2024/03/10 14:11:45;;;;;;;1.37;0.60;;;;;;;;;;6320967;28;20483;-75
2024/03/10 14:14:45;;;;;;;0.60;0.60;;;;;;;;;;6321636;28;20032;-73
2024/03/10 14:17:46;;;;;;;1.23;0.70;;;;;;;;;;6321155;28;20469;-74
2024/03/10 14:20:46;;;;;;;0.87;0.60;;;;;;;;;;6318253;28;20444;-74
2024/03/10 14:23:46;;;;;;;0.63;0.60;;;;;;;;;;6320219;28;21546;-74
2024/03/10 14:26:46;;;;;;;1.20;0.80;;;;;;;;;;6317992;28;20305;-74
2024/03/10 14:29:47;;;;;;;1.10;0.70;;;;;;;;;;6320981;28;20144;-74
2024/03/10 14:32:47;;;;;;;1.35;0.75;;;;;;;;;;6321026;28;20020;-74
2024/03/10 14:35:47;;;;;;;1.40;0.80;;;;;;;;;;6318013;28;20035;-76
2024/03/10 14:38:48;;;;;;;1.07;0.77;;;;;;;;;;6320012;28;20044;-75
2024/03/10 14:41:48;;;;;;;1.55;0.95;;;;;;;;;;6292342;28;20396;-74
2024/03/10 14:44:49;;;;;;;1.57;0.73;;;;;;;;;;6318833;28;20094;-75
2024/03/10 14:47:50;;;;;;;1.20;0.90;;;;;;;;;;6321855;28;20074;-74
2024/03/10 14:50:51;;;;;;;1.58;0.80;;;;;;;;;;6319446;28;20042;-74
2024/03/10 14:53:51;;;;;;;2.35;0.90;;;;;;;;;;6318266;28;20078;-74
2024/03/10 14:56:52;;;;;;;2.72;1.00;;;;;;;;;;6320060;28;20028;-75
2024/03/10 14:59:52;;;;;;;1.43;1.10;;;;;;;;;;6318517;28;20032;-75
2024/03/10 15:02:52;;;;;;;2.58;1.10;;;;;;;;;;6320279;28;20272;-75
2024/03/10 15:05:53;;;;;;;1.57;1.03;;;;;;;;;;6319941;28;20468;-74
2024/03/10 15:08:57;;;;;;;0.90;0.80;;;;;;;;;;6320388;28;20484;-74
2024/03/10 15:11:57;;;;;;;2.38;0.90;;;;;;;;;;6319255;28;20028;-74
2024/03/10 15:14:57;;;;;;;1.97;1.00;;;;;;;;;;6319761;28;20074;-77
2024/03/10 15:17:58;;;;;;;2.17;1.00;;;;;;;;;;6319338;28;20035;-77
2024/03/10 15:20:59;;;;;;;2.15;0.90;;;;;;;;;;6317785;28;20099;-77
2024/03/10 15:23:59;;;;;;;2.08;0.80;;;;;;;;;;6319457;28;20492;-77
2024/03/10 15:27:01;;;;;;;3.10;1.13;;;;;;;;;;6318959;28;20489;-77
2024/03/10 15:30:01;;;;;;;1.67;0.98;;;;;;;;;;6301451;28;20044;-77
2024/03/10 15:33:01;;;;;;;3.10;0.90;;;;;;;;;;6319230;28;20119;-77
2024/03/10 15:36:03;;;;;;;1.67;1.00;;;;;;;;;;6318651;28;20107;-77
2024/03/10 15:39:04;;;;;;;2.03;1.00;;;;;;;;;;6316973;28;20032;-76
2024/03/10 15:42:06;;;;;;;1.42;0.85;;;;;;;;;;6320292;28;20491;-77
2024/03/10 15:45:07;;;;;;;1.75;1.10;;;;;;;;;;6320505;28;20039;-77
2024/03/10 15:48:08;;;;;;;1.80;0.90;;;;;;;;;;6318470;28;20032;-77
2024/03/10 15:51:09;;;;;;;1.45;0.95;;;;;;;;;;6318289;28;20093;-77
2024/03/10 15:54:10;;;;;;;2.10;1.20;;;;;;;;;;6320332;28;20028;-77
2024/03/10 15:57:12;;;;;;;;;;;;;;;;;;6319423;28;20490;-77
2024/03/10 16:00:15;;;;;;;2.33;0.93;;;;;;;;;;6321647;28;19908;-77
2024/03/10 16:03:15;;;;;;;2.05;1.17;;;;;;;;;;6321150;28;20088;-77
2024/03/10 16:06:16;;;;;;;1.90;0.90;;;;;;;;;;6317463;28;20024;-77
2024/03/10 16:09:21;;;;;;;1.45;1.13;;;;;;;;;;6319797;28;20026;-77
2024/03/10 16:12:21;;;;;;;2.53;1.08;;;;;;;;;;6317202;28;20111;-77
2024/03/10 16:15:25;;;;;;;2.03;1.00;;;;;;;;;;6317428;28;20376;-77
2024/03/10 16:18:27;;;;;;;1.90;1.23;;;;;;;;;;6321234;28;20032;-77
2024/03/10 16:21:30;;;;;;;3.00;1.35;;;;;;;;;;6318396;28;20512;-77
2024/03/10 16:24:33;;;;;;;2.67;1.15;;;;;;;;;;6320286;28;20039;-73
2024/03/10 16:27:36;;;;;;;2.30;1.20;;;;;;;;;;6320573;28;20028;-74
2024/03/10 16:30:37;;;;;;;3.17;1.40;;;;;;;;;;6319820;28;20032;-74
2024/03/10 16:33:37;;;;;;;1.90;1.40;;;;;;;;;;6322207;28;20486;-73
2024/03/10 16:36:38;;;;;;;1.80;1.30;;;;;;;;;;6323655;28;20481;-74
2024/03/10 16:39:38;;;;;;;1.60;1.10;;;;;;;;;;6320869;28;20480;-75
2024/03/10 16:42:40;;;;;;;1.23;1.10;;;;;;;;;;6324781;28;20031;-75
2024/03/10 16:45:40;;;;;;;4.65;1.30;;;;;;;;;;6323743;28;20040;-74
2024/03/10 16:48:41;;;;;;;1.47;1.10;;;;;;;;;;6318000;28;20039;-74
2024/03/10 16:51:41;;;;;;;2.40;1.40;;;;;;;;;;6322519;28;20033;-74
2024/03/10 16:54:43;;;;;;;1.97;1.10;;;;;;;;;;6321072;28;20028;-74
2024/03/10 16:57:43;;;;;;;2.63;1.20;;;;;;;;;;6324238;28;20266;-74
2024/03/10 17:00:45;;;;;;;2.77;1.40;;;;;;;;;;6322638;28;20070;-75
2024/03/10 17:03:45;;;;;;;3.35;1.58;;;;;;;;;;6323562;28;20078;-73
2024/03/10 17:06:48;;;;;;;1.37;1.07;;;;;;;;;;6321642;28;20032;-75
2024/03/10 17:09:48;;;;;;;2.20;1.30;;;;;;;;;;6320578;28;20099;-74
2024/03/10 17:12:48;;;;;;;1.30;1.20;;;;;;;;;;6321784;28;20373;-74
2024/03/10 17:15:49;;;;;;;3.00;1.20;;;;;;;;;;6322413;28;20020;-73
2024/03/10 17:18:49;;;;;;;1.30;0.90;;;;;;;;;;6322994;28;20054;-73
2024/03/10 17:21:49;;;;;;;2.97;1.17;;;;;;;;;;6320846;28;20111;-74
2024/03/10 17:24:50;;;;;;;1.38;1.13;;;;;;;;;;6321143;28;20054;-73
2024/03/10 17:27:50;;;;;;;1.63;1.13;;;;;;;;;;6319423;28;20027;-74
2024/03/10 17:30:50;;;;;;;1.80;1.20;;;;;;;;;;6321643;28;20461;-74
2024/03/10 17:33:51;;;;;;;3.13;1.27;;;;;;;;;;6324477;28;20024;-73
2024/03/10 17:36:51;;;;;;;3.77;1.03;;;;;;;;;;6301329;28;20511;-73
2024/03/10 17:39:52;;;;;;;3.27;1.40;;;;;;;;;;6321111;28;20107;-74
2024/03/10 17:42:53;;;;;;;;;;;;;;;;;;6322365;28;20020;-74
2024/03/10 17:45:53;;;;;;;1.37;0.83;;;;;;;;;;6321409;28;19912;-77
2024/03/10 17:48:53;;;;;;;3.30;1.30;;;;;;;;;;6322933;28;20028;-77
2024/03/10 17:51:55;;;;;;;2.30;1.13;;;;;;;;;;6321485;28;20073;-77
2024/03/10 17:54:56;;;;;;;2.78;1.40;;;;;;;;;;6322404;28;20024;-77
2024/03/10 17:57:56;;;;;;;3.63;1.55;;;;;;;;;;6321370;28;20023;-77
2024/03/10 18:00:56;;;;;;;3.00;1.70;;;;;;;;;;6322220;28;20052;-77
2024/03/10 18:03:57;;;;;;;2.73;1.40;;;;;;;;;;6321438;28;20028;-77
2024/03/10 18:06:57;;;;;;;3.17;1.63;;;;;;;;;;6318728;28;20365;-77
2024/03/10 18:09:57;;;;;;;3.17;1.47;;;;;;;;;;6320073;28;20278;-77
2024/03/10 18:12:57;;;;;;;2.40;1.30;;;;;;;;;;6319791;28;20023;-77
2024/03/10 18:15:58;;;;;;;3.23;1.43;;;;;;;;;;6322735;28;20499;-77
2024/03/10 18:18:59;;;;;;;2.43;1.63;;;;;;;;;;6322818;28;20380;-77
2024/03/10 18:21:59;;;;;;;3.13;1.50;;;;;;;;;;6309794;28;20317;-77
2024/03/10 18:24:59;;;;;;;2.43;1.20;;;;;;;;;;6319935;28;20040;-76
2024/03/10 18:27:59;;;;;;;2.00;1.47;;;;;;;;;;6319789;28;20024;-77
2024/03/10 18:31:02;;;;;;;2.07;1.27;;;;;;;;;;6308917;28;20093;-77